Search for airport 
image banner adimage banner adimage banner ad
image banner ad

PS03 - Elephant Path

Located in Perkasie, United States

ICAO - PS03, IATA -

Data provided by Airmate  

General information

Coordinates: N40°24'28" W75°13'57"
Elevation is 370 feet MSL.
Magnetic variation is -12° East
View others Airports in Pennsylvania

Operational data

Special qualification required
Current time UTC:
Current local time:
Weather at : KCKZ - Pennridge ( 5 km )
METAR: KCKZ 092235Z AUTO 05006KT 6SM -RA BKN006 07/07 A2993 RMK AO2 P0002
View NOTAMs / SUP AIP / TFR affecting this airport [VIEW]
Communications frequencies: [VIEW]

Runways:

RWY identifierQFULength (ft)Width (ft)SurfaceLDA (ft)
05275035ASPH
23275035ASPH

Airport contact information

Address: Perkasie United States

Satellite view of PS03